sensor_id;sensor_type;location;lat;lon;timestamp;P1;durP1;ratioP1;P2;durP2;ratioP2
47725;SDS011;33483;48.294;16.388;2022-11-15T00:01:56;165.63;;;52.92;;
47725;SDS011;33483;48.294;16.388;2022-11-15T00:04:43;147.60;;;53.35;;
47725;SDS011;33483;48.294;16.388;2022-11-15T00:07:28;143.45;;;52.25;;
47725;SDS011;33483;48.294;16.388;2022-11-15T00:10:35;141.63;;;49.50;;
47725;SDS011;33483;48.294;16.388;2022-11-15T00:13:23;136.27;;;48.22;;
47725;SDS011;33483;48.294;16.388;2022-11-15T00:16:09;135.02;;;48.92;;
47725;SDS011;33483;48.294;16.388;2022-11-15T00:18:58;135.57;;;48.50;;
47725;SDS011;33483;48.294;16.388;2022-11-15T00:21:44;144.05;;;47.58;;
47725;SDS011;33483;48.294;16.388;2022-11-15T00:24:30;125.30;;;49.25;;
47725;SDS011;33483;48.294;16.388;2022-11-15T00:27:17;129.55;;;46.25;;
47725;SDS011;33483;48.294;16.388;2022-11-15T00:30:06;135.68;;;46.78;;
47725;SDS011;33483;48.294;16.388;2022-11-15T00:32:52;144.80;;;48.42;;
47725;SDS011;33483;48.294;16.388;2022-11-15T00:35:37;122.85;;;46.22;;
47725;SDS011;33483;48.294;16.388;2022-11-15T00:38:23;130.85;;;44.05;;
47725;SDS011;33483;48.294;16.388;2022-11-15T00:41:09;129.70;;;44.70;;
47725;SDS011;33483;48.294;16.388;2022-11-15T00:43:54;125.75;;;44.20;;
47725;SDS011;33483;48.294;16.388;2022-11-15T00:46:40;112.80;;;42.63;;
47725;SDS011;33483;48.294;16.388;2022-11-15T00:49:26;126.68;;;44.33;;
47725;SDS011;33483;48.294;16.388;2022-11-15T00:52:12;111.20;;;39.03;;
47725;SDS011;33483;48.294;16.388;2022-11-15T00:54:58;125.35;;;41.65;;
47725;SDS011;33483;48.294;16.388;2022-11-15T00:57:44;118.32;;;40.65;;
47725;SDS011;33483;48.294;16.388;2022-11-15T01:00:32;123.28;;;42.88;;
47725;SDS011;33483;48.294;16.388;2022-11-15T01:03:18;119.50;;;40.45;;
47725;SDS011;33483;48.294;16.388;2022-11-15T01:06:04;114.78;;;39.17;;
47725;SDS011;33483;48.294;16.388;2022-11-15T01:08:50;124.00;;;40.35;;
47725;SDS011;33483;48.294;16.388;2022-11-15T01:11:36;86.38;;;30.05;;
47725;SDS011;33483;48.294;16.388;2022-11-15T01:14:22;89.35;;;31.60;;
47725;SDS011;33483;48.294;16.388;2022-11-15T01:17:10;109.32;;;38.60;;
47725;SDS011;33483;48.294;16.388;2022-11-15T01:19:55;122.87;;;39.40;;
47725;SDS011;33483;48.294;16.388;2022-11-15T01:22:40;122.38;;;40.15;;
47725;SDS011;33483;48.294;16.388;2022-11-15T01:25:26;118.30;;;39.28;;
47725;SDS011;33483;48.294;16.388;2022-11-15T01:28:12;124.15;;;38.92;;
47725;SDS011;33483;48.294;16.388;2022-11-15T01:30:59;119.10;;;40.65;;
47725;SDS011;33483;48.294;16.388;2022-11-15T01:33:46;110.60;;;39.00;;
47725;SDS011;33483;48.294;16.388;2022-11-15T01:36:32;120.82;;;40.28;;
47725;SDS011;33483;48.294;16.388;2022-11-15T01:39:18;125.85;;;40.80;;
47725;SDS011;33483;48.294;16.388;2022-11-15T01:42:09;122.68;;;40.05;;
47725;SDS011;33483;48.294;16.388;2022-11-15T01:44:57;113.47;;;40.40;;
47725;SDS011;33483;48.294;16.388;2022-11-15T01:47:45;118.75;;;39.22;;
47725;SDS011;33483;48.294;16.388;2022-11-15T01:50:34;118.57;;;39.35;;
47725;SDS011;33483;48.294;16.388;2022-11-15T01:53:19;102.43;;;33.77;;
47725;SDS011;33483;48.294;16.388;2022-11-15T01:56:11;114.88;;;40.30;;
47725;SDS011;33483;48.294;16.388;2022-11-15T01:59:01;109.82;;;38.88;;
47725;SDS011;33483;48.294;16.388;2022-11-15T02:01:49;111.60;;;38.58;;
47725;SDS011;33483;48.294;16.388;2022-11-15T02:07:28;104.50;;;38.05;;
47725;SDS011;33483;48.294;16.388;2022-11-15T02:10:17;101.22;;;38.03;;
47725;SDS011;33483;48.294;16.388;2022-11-15T02:13:05;106.13;;;38.42;;
47725;SDS011;33483;48.294;16.388;2022-11-15T02:16:10;109.78;;;38.97;;
47725;SDS011;33483;48.294;16.388;2022-11-15T02:28:31;104.05;;;37.67;;
47725;SDS011;33483;48.294;16.388;2022-11-15T02:34:22;101.88;;;36.45;;
47725;SDS011;33483;48.294;16.388;2022-11-15T02:37:16;108.55;;;36.85;;
47725;SDS011;33483;48.294;16.388;2022-11-15T02:46:46;100.00;;;36.60;;
47725;SDS011;33483;48.294;16.388;2022-11-15T02:50:22;107.53;;;36.20;;
47725;SDS011;33483;48.294;16.388;2022-11-15T02:53:09;106.13;;;37.38;;
47725;SDS011;33483;48.294;16.388;2022-11-15T02:55:55;85.30;;;28.65;;
47725;SDS011;33483;48.294;16.388;2022-11-15T03:08:37;113.70;;;38.88;;
47725;SDS011;33483;48.294;16.388;2022-11-15T03:11:44;99.85;;;35.97;;
47725;SDS011;33483;48.294;16.388;2022-11-15T03:14:39;103.80;;;38.00;;
47725;SDS011;33483;48.294;16.388;2022-11-15T03:21:08;102.72;;;35.88;;
47725;SDS011;33483;48.294;16.388;2022-11-15T03:23:56;112.05;;;37.03;;
47725;SDS011;33483;48.294;16.388;2022-11-15T03:26:46;115.32;;;35.05;;
47725;SDS011;33483;48.294;16.388;2022-11-15T03:29:34;117.35;;;35.35;;
47725;SDS011;33483;48.294;16.388;2022-11-15T03:32:24;114.18;;;34.80;;
47725;SDS011;33483;48.294;16.388;2022-11-15T03:35:23;113.47;;;35.25;;
47725;SDS011;33483;48.294;16.388;2022-11-15T03:38:30;120.15;;;37.10;;
47725;SDS011;33483;48.294;16.388;2022-11-15T03:41:24;113.53;;;37.97;;
47725;SDS011;33483;48.294;16.388;2022-11-15T03:44:40;124.63;;;38.42;;
47725;SDS011;33483;48.294;16.388;2022-11-15T03:47:41;121.95;;;38.13;;
47725;SDS011;33483;48.294;16.388;2022-11-15T03:50:35;123.47;;;39.13;;
47725;SDS011;33483;48.294;16.388;2022-11-15T03:53:21;139.77;;;40.65;;
47725;SDS011;33483;48.294;16.388;2022-11-15T03:56:07;159.55;;;44.17;;
47725;SDS011;33483;48.294;16.388;2022-11-15T03:58:52;135.75;;;40.88;;
47725;SDS011;33483;48.294;16.388;2022-11-15T04:01:39;127.50;;;39.33;;
47725;SDS011;33483;48.294;16.388;2022-11-15T04:04:24;164.07;;;43.17;;
47725;SDS011;33483;48.294;16.388;2022-11-15T04:07:12;136.77;;;42.65;;
47725;SDS011;33483;48.294;16.388;2022-11-15T04:09:58;182.65;;;42.30;;
47725;SDS011;33483;48.294;16.388;2022-11-15T04:12:51;191.98;;;43.65;;
47725;SDS011;33483;48.294;16.388;2022-11-15T04:15:36;142.73;;;35.58;;
47725;SDS011;33483;48.294;16.388;2022-11-15T04:18:24;154.80;;;44.83;;
47725;SDS011;33483;48.294;16.388;2022-11-15T04:21:10;164.15;;;42.45;;
47725;SDS011;33483;48.294;16.388;2022-11-15T04:24:14;175.02;;;43.55;;
47725;SDS011;33483;48.294;16.388;2022-11-15T04:27:00;209.90;;;42.88;;
47725;SDS011;33483;48.294;16.388;2022-11-15T04:29:46;159.50;;;41.90;;
47725;SDS011;33483;48.294;16.388;2022-11-15T04:32:32;173.32;;;43.08;;
47725;SDS011;33483;48.294;16.388;2022-11-15T04:35:18;169.77;;;42.63;;
47725;SDS011;33483;48.294;16.388;2022-11-15T04:38:05;101.88;;;31.60;;
47725;SDS011;33483;48.294;16.388;2022-11-15T04:40:52;134.30;;;41.75;;
47725;SDS011;33483;48.294;16.388;2022-11-15T04:43:37;144.02;;;41.53;;
47725;SDS011;33483;48.294;16.388;2022-11-15T04:46:23;153.10;;;39.85;;
47725;SDS011;33483;48.294;16.388;2022-11-15T04:51:57;156.38;;;40.65;;
47725;SDS011;33483;48.294;16.388;2022-11-15T04:54:45;172.35;;;40.05;;
47725;SDS011;33483;48.294;16.388;2022-11-15T04:57:31;149.50;;;41.72;;
47725;SDS011;33483;48.294;16.388;2022-11-15T05:00:16;156.60;;;43.10;;
47725;SDS011;33483;48.294;16.388;2022-11-15T05:03:02;187.82;;;42.78;;
47725;SDS011;33483;48.294;16.388;2022-11-15T05:06:06;127.30;;;40.78;;
47725;SDS011;33483;48.294;16.388;2022-11-15T05:08:52;147.02;;;41.58;;
47725;SDS011;33483;48.294;16.388;2022-11-15T05:11:39;155.82;;;38.72;;
47725;SDS011;33483;48.294;16.388;2022-11-15T05:14:25;162.60;;;40.70;;
47725;SDS011;33483;48.294;16.388;2022-11-15T05:17:11;160.43;;;41.08;;
47725;SDS011;33483;48.294;16.388;2022-11-15T05:19:57;163.07;;;43.03;;
47725;SDS011;33483;48.294;16.388;2022-11-15T05:22:42;203.57;;;40.78;;
47725;SDS011;33483;48.294;16.388;2022-11-15T05:25:28;117.72;;;31.02;;
47725;SDS011;33483;48.294;16.388;2022-11-15T05:28:14;159.25;;;40.17;;
47725;SDS011;33483;48.294;16.388;2022-11-15T05:31:03;120.72;;;38.28;;
47725;SDS011;33483;48.294;16.388;2022-11-15T05:33:54;121.50;;;39.67;;
47725;SDS011;33483;48.294;16.388;2022-11-15T05:36:44;143.20;;;39.92;;
47725;SDS011;33483;48.294;16.388;2022-11-15T05:39:31;112.25;;;38.80;;
47725;SDS011;33483;48.294;16.388;2022-11-15T05:42:17;139.60;;;39.35;;
47725;SDS011;33483;48.294;16.388;2022-11-15T05:45:04;106.68;;;36.95;;
47725;SDS011;33483;48.294;16.388;2022-11-15T05:47:52;108.72;;;37.15;;
47725;SDS011;33483;48.294;16.388;2022-11-15T05:50:41;153.15;;;38.35;;
47725;SDS011;33483;48.294;16.388;2022-11-15T05:53:29;114.18;;;37.38;;
47725;SDS011;33483;48.294;16.388;2022-11-15T05:56:16;106.25;;;38.38;;
47725;SDS011;33483;48.294;16.388;2022-11-15T05:59:02;122.55;;;37.28;;
47725;SDS011;33483;48.294;16.388;2022-11-15T06:01:48;128.52;;;39.13;;
47725;SDS011;33483;48.294;16.388;2022-11-15T06:07:20;116.82;;;35.25;;
47725;SDS011;33483;48.294;16.388;2022-11-15T06:10:06;120.15;;;36.85;;
47725;SDS011;33483;48.294;16.388;2022-11-15T06:15:44;128.55;;;37.40;;
47725;SDS011;33483;48.294;16.388;2022-11-15T06:18:32;145.90;;;38.28;;
47725;SDS011;33483;48.294;16.388;2022-11-15T06:21:19;159.20;;;37.83;;
47725;SDS011;33483;48.294;16.388;2022-11-15T06:24:05;128.38;;;38.53;;
47725;SDS011;33483;48.294;16.388;2022-11-15T06:26:52;126.00;;;38.22;;
47725;SDS011;33483;48.294;16.388;2022-11-15T06:29:37;155.90;;;40.20;;
47725;SDS011;33483;48.294;16.388;2022-11-15T06:32:23;197.40;;;40.42;;
47725;SDS011;33483;48.294;16.388;2022-11-15T06:35:08;135.23;;;38.45;;
47725;SDS011;33483;48.294;16.388;2022-11-15T06:37:54;128.30;;;41.35;;
47725;SDS011;33483;48.294;16.388;2022-11-15T06:40:40;177.60;;;40.45;;
47725;SDS011;33483;48.294;16.388;2022-11-15T06:43:26;180.82;;;40.50;;
47725;SDS011;33483;48.294;16.388;2022-11-15T06:46:11;153.68;;;40.75;;
47725;SDS011;33483;48.294;16.388;2022-11-15T06:48:58;163.95;;;41.17;;
47725;SDS011;33483;48.294;16.388;2022-11-15T06:51:43;117.40;;;42.15;;
47725;SDS011;33483;48.294;16.388;2022-11-15T06:54:29;134.35;;;41.92;;
47725;SDS011;33483;48.294;16.388;2022-11-15T06:57:14;143.93;;;40.35;;
47725;SDS011;33483;48.294;16.388;2022-11-15T07:00:02;126.00;;;40.70;;
47725;SDS011;33483;48.294;16.388;2022-11-15T07:02:50;178.90;;;42.30;;
47725;SDS011;33483;48.294;16.388;2022-11-15T07:05:39;136.60;;;42.85;;
47725;SDS011;33483;48.294;16.388;2022-11-15T07:08:26;164.07;;;40.42;;
47725;SDS011;33483;48.294;16.388;2022-11-15T07:11:13;144.05;;;40.80;;
47725;SDS011;33483;48.294;16.388;2022-11-15T07:13:59;173.70;;;41.22;;
47725;SDS011;33483;48.294;16.388;2022-11-15T07:19:31;137.50;;;39.28;;
47725;SDS011;33483;48.294;16.388;2022-11-15T07:22:17;105.88;;;32.55;;
47725;SDS011;33483;48.294;16.388;2022-11-15T07:27:58;149.07;;;38.65;;
47725;SDS011;33483;48.294;16.388;2022-11-15T07:30:45;103.95;;;32.80;;
47725;SDS011;33483;48.294;16.388;2022-11-15T07:33:31;127.40;;;39.75;;
47725;SDS011;33483;48.294;16.388;2022-11-15T07:36:18;136.10;;;39.22;;
47725;SDS011;33483;48.294;16.388;2022-11-15T07:39:04;146.10;;;40.10;;
47725;SDS011;33483;48.294;16.388;2022-11-15T07:41:49;155.80;;;40.00;;
47725;SDS011;33483;48.294;16.388;2022-11-15T07:44:55;151.32;;;40.15;;
47725;SDS011;33483;48.294;16.388;2022-11-15T07:47:44;133.32;;;40.03;;
47725;SDS011;33483;48.294;16.388;2022-11-15T07:50:31;157.18;;;42.30;;
47725;SDS011;33483;48.294;16.388;2022-11-15T07:53:19;149.48;;;39.80;;
47725;SDS011;33483;48.294;16.388;2022-11-15T07:56:06;129.90;;;41.30;;
47725;SDS011;33483;48.294;16.388;2022-11-15T07:58:53;137.77;;;39.33;;
47725;SDS011;33483;48.294;16.388;2022-11-15T08:01:42;181.00;;;43.20;;
47725;SDS011;33483;48.294;16.388;2022-11-15T08:04:28;113.45;;;32.95;;
47725;SDS011;33483;48.294;16.388;2022-11-15T08:07:14;180.88;;;40.90;;
47725;SDS011;33483;48.294;16.388;2022-11-15T08:10:00;135.45;;;38.55;;
47725;SDS011;33483;48.294;16.388;2022-11-15T08:13:01;134.15;;;41.38;;
47725;SDS011;33483;48.294;16.388;2022-11-15T08:15:47;120.15;;;40.78;;
47725;SDS011;33483;48.294;16.388;2022-11-15T08:18:41;139.48;;;39.70;;
47725;SDS011;33483;48.294;16.388;2022-11-15T08:21:26;165.98;;;40.00;;
47725;SDS011;33483;48.294;16.388;2022-11-15T08:24:12;166.02;;;42.90;;
47725;SDS011;33483;48.294;16.388;2022-11-15T08:26:58;136.55;;;39.85;;
47725;SDS011;33483;48.294;16.388;2022-11-15T08:29:44;120.82;;;40.25;;
47725;SDS011;33483;48.294;16.388;2022-11-15T08:32:31;168.00;;;41.85;;
47725;SDS011;33483;48.294;16.388;2022-11-15T08:35:17;127.97;;;42.88;;
47725;SDS011;33483;48.294;16.388;2022-11-15T08:38:08;130.48;;;42.10;;
47725;SDS011;33483;48.294;16.388;2022-11-15T08:40:58;147.88;;;39.72;;
47725;SDS011;33483;48.294;16.388;2022-11-15T08:43:47;144.50;;;41.38;;
47725;SDS011;33483;48.294;16.388;2022-11-15T08:49:21;106.10;;;36.45;;
47725;SDS011;33483;48.294;16.388;2022-11-15T08:52:07;141.43;;;38.90;;
47725;SDS011;33483;48.294;16.388;2022-11-15T08:54:53;119.88;;;37.78;;
47725;SDS011;33483;48.294;16.388;2022-11-15T09:00:25;132.00;;;37.58;;
47725;SDS011;33483;48.294;16.388;2022-11-15T09:03:11;124.00;;;37.65;;
47725;SDS011;33483;48.294;16.388;2022-11-15T09:05:58;149.05;;;41.30;;
47725;SDS011;33483;48.294;16.388;2022-11-15T09:08:45;134.60;;;40.00;;
47725;SDS011;33483;48.294;16.388;2022-11-15T09:11:33;208.38;;;43.00;;
47725;SDS011;33483;48.294;16.388;2022-11-15T09:14:19;146.18;;;38.85;;
47725;SDS011;33483;48.294;16.388;2022-11-15T09:17:07;122.05;;;39.80;;
47725;SDS011;33483;48.294;16.388;2022-11-15T09:19:54;142.18;;;42.75;;
47725;SDS011;33483;48.294;16.388;2022-11-15T09:22:40;140.90;;;42.42;;
47725;SDS011;33483;48.294;16.388;2022-11-15T09:25:25;151.32;;;43.45;;
47725;SDS011;33483;48.294;16.388;2022-11-15T09:28:11;94.32;;;29.08;;
47725;SDS011;33483;48.294;16.388;2022-11-15T09:30:58;131.23;;;40.63;;
47725;SDS011;33483;48.294;16.388;2022-11-15T09:33:49;129.40;;;39.85;;
47725;SDS011;33483;48.294;16.388;2022-11-15T09:36:35;136.52;;;38.08;;
47725;SDS011;33483;48.294;16.388;2022-11-15T09:39:23;136.80;;;40.45;;
47725;SDS011;33483;48.294;16.388;2022-11-15T09:45:20;131.80;;;39.08;;
47725;SDS011;33483;48.294;16.388;2022-11-15T09:51:13;122.18;;;39.80;;
47725;SDS011;33483;48.294;16.388;2022-11-15T09:53:51;136.75;;;40.97;;
47725;SDS011;33483;48.294;16.388;2022-11-15T09:56:41;135.00;;;39.08;;
47725;SDS011;33483;48.294;16.388;2022-11-15T10:04:39;134.10;;;41.28;;
47725;SDS011;33483;48.294;16.388;2022-11-15T10:10:10;125.88;;;39.58;;
47725;SDS011;33483;48.294;16.388;2022-11-15T10:12:39;134.55;;;40.92;;
47725;SDS011;33483;48.294;16.388;2022-11-15T10:15:15;126.43;;;41.38;;
47725;SDS011;33483;48.294;16.388;2022-11-15T10:18:09;142.23;;;40.78;;
47725;SDS011;33483;48.294;16.388;2022-11-15T10:21:29;132.95;;;39.55;;
47725;SDS011;33483;48.294;16.388;2022-11-15T10:23:42;125.60;;;38.67;;
47725;SDS011;33483;48.294;16.388;2022-11-15T10:26:11;126.88;;;41.42;;
47725;SDS011;33483;48.294;16.388;2022-11-15T10:28:41;127.07;;;40.65;;
47725;SDS011;33483;48.294;16.388;2022-11-15T10:31:27;111.50;;;37.40;;
47725;SDS011;33483;48.294;16.388;2022-11-15T10:36:47;118.45;;;39.97;;
47725;SDS011;33483;48.294;16.388;2022-11-15T10:39:21;116.95;;;41.63;;
47725;SDS011;33483;48.294;16.388;2022-11-15T10:41:49;118.25;;;39.28;;
47725;SDS011;33483;48.294;16.388;2022-11-15T10:46:45;130.38;;;41.17;;
47725;SDS011;33483;48.294;16.388;2022-11-15T10:49:33;121.07;;;40.88;;
47725;SDS011;33483;48.294;16.388;2022-11-15T10:52:16;129.80;;;40.97;;
47725;SDS011;33483;48.294;16.388;2022-11-15T10:54:48;135.55;;;40.75;;
47725;SDS011;33483;48.294;16.388;2022-11-15T10:57:22;140.93;;;41.13;;
47725;SDS011;33483;48.294;16.388;2022-11-15T10:59:56;141.40;;;42.15;;
47725;SDS011;33483;48.294;16.388;2022-11-15T11:10:38;129.55;;;42.85;;
47725;SDS011;33483;48.294;16.388;2022-11-15T11:13:38;129.57;;;41.83;;
47725;SDS011;33483;48.294;16.388;2022-11-15T11:19:13;120.65;;;39.70;;
47725;SDS011;33483;48.294;16.388;2022-11-15T11:24:33;135.38;;;41.25;;
47725;SDS011;33483;48.294;16.388;2022-11-15T11:30:16;119.93;;;40.60;;
47725;SDS011;33483;48.294;16.388;2022-11-15T11:33:21;120.93;;;40.33;;
47725;SDS011;33483;48.294;16.388;2022-11-15T11:41:13;111.03;;;38.90;;
47725;SDS011;33483;48.294;16.388;2022-11-15T11:46:55;105.97;;;36.35;;
47725;SDS011;33483;48.294;16.388;2022-11-15T11:49:30;107.47;;;38.00;;
47725;SDS011;33483;48.294;16.388;2022-11-15T11:57:34;106.22;;;38.35;;
47725;SDS011;33483;48.294;16.388;2022-11-15T12:05:40;97.10;;;36.95;;
47725;SDS011;33483;48.294;16.388;2022-11-15T12:11:07;102.45;;;39.15;;
47725;SDS011;33483;48.294;16.388;2022-11-15T12:13:36;113.82;;;40.63;;
47725;SDS011;33483;48.294;16.388;2022-11-15T12:16:07;114.85;;;38.85;;
47725;SDS011;33483;48.294;16.388;2022-11-15T12:18:37;128.95;;;41.53;;
47725;SDS011;33483;48.294;16.388;2022-11-15T12:21:06;120.50;;;40.22;;
47725;SDS011;33483;48.294;16.388;2022-11-15T12:23:46;117.15;;;40.85;;
47725;SDS011;33483;48.294;16.388;2022-11-15T12:26:20;119.28;;;41.97;;
47725;SDS011;33483;48.294;16.388;2022-11-15T12:34:49;126.35;;;44.40;;
47725;SDS011;33483;48.294;16.388;2022-11-15T12:36:54;117.85;;;41.65;;
47725;SDS011;33483;48.294;16.388;2022-11-15T12:40:02;119.55;;;42.65;;
47725;SDS011;33483;48.294;16.388;2022-11-15T12:44:59;127.65;;;42.65;;
47725;SDS011;33483;48.294;16.388;2022-11-15T12:47:26;117.60;;;42.53;;
47725;SDS011;33483;48.294;16.388;2022-11-15T12:49:54;129.52;;;44.30;;
47725;SDS011;33483;48.294;16.388;2022-11-15T12:52:21;151.07;;;46.65;;
47725;SDS011;33483;48.294;16.388;2022-11-15T12:54:50;139.38;;;46.70;;
47725;SDS011;33483;48.294;16.388;2022-11-15T12:57:26;132.00;;;46.30;;
47725;SDS011;33483;48.294;16.388;2022-11-15T12:59:59;139.02;;;46.40;;
47725;SDS011;33483;48.294;16.388;2022-11-15T13:02:43;144.65;;;47.50;;
47725;SDS011;33483;48.294;16.388;2022-11-15T13:17:46;148.73;;;47.70;;
47725;SDS011;33483;48.294;16.388;2022-11-15T13:20:22;156.48;;;50.88;;
47725;SDS011;33483;48.294;16.388;2022-11-15T13:28:49;129.35;;;46.72;;
47725;SDS011;33483;48.294;16.388;2022-11-15T13:30:54;133.98;;;47.90;;
47725;SDS011;33483;48.294;16.388;2022-11-15T13:33:30;142.60;;;51.70;;
47725;SDS011;33483;48.294;16.388;2022-11-15T13:36:24;149.85;;;51.13;;
47725;SDS011;33483;48.294;16.388;2022-11-15T13:41:28;151.80;;;50.60;;
47725;SDS011;33483;48.294;16.388;2022-11-15T13:43:57;155.13;;;51.72;;
47725;SDS011;33483;48.294;16.388;2022-11-15T13:46:27;146.30;;;51.38;;
47725;SDS011;33483;48.294;16.388;2022-11-15T13:49:00;151.85;;;50.53;;
47725;SDS011;33483;48.294;16.388;2022-11-15T13:56:45;119.28;;;47.97;;
47725;SDS011;33483;48.294;16.388;2022-11-15T13:59:23;126.82;;;47.78;;
47725;SDS011;33483;48.294;16.388;2022-11-15T14:01:57;143.70;;;55.35;;
47725;SDS011;33483;48.294;16.388;2022-11-15T14:04:38;127.28;;;51.42;;
47725;SDS011;33483;48.294;16.388;2022-11-15T14:07:21;125.40;;;48.40;;
47725;SDS011;33483;48.294;16.388;2022-11-15T14:09:50;121.28;;;48.00;;
47725;SDS011;33483;48.294;16.388;2022-11-15T14:12:31;111.50;;;48.50;;
47725;SDS011;33483;48.294;16.388;2022-11-15T14:15:01;114.90;;;48.55;;
47725;SDS011;33483;48.294;16.388;2022-11-15T14:17:45;132.50;;;51.78;;
47725;SDS011;33483;48.294;16.388;2022-11-15T14:20:35;129.27;;;50.28;;
47725;SDS011;33483;48.294;16.388;2022-11-15T14:23:05;132.40;;;50.20;;
47725;SDS011;33483;48.294;16.388;2022-11-15T14:25:53;142.10;;;50.50;;
47725;SDS011;33483;48.294;16.388;2022-11-15T14:30:55;132.52;;;50.08;;
47725;SDS011;33483;48.294;16.388;2022-11-15T14:33:34;153.68;;;53.38;;
47725;SDS011;33483;48.294;16.388;2022-11-15T14:36:04;142.10;;;50.85;;
47725;SDS011;33483;48.294;16.388;2022-11-15T14:38:32;146.57;;;52.80;;
47725;SDS011;33483;48.294;16.388;2022-11-15T14:41:00;132.07;;;50.15;;
47725;SDS011;33483;48.294;16.388;2022-11-15T14:43:27;147.95;;;54.20;;
47725;SDS011;33483;48.294;16.388;2022-11-15T14:45:54;136.77;;;54.10;;
47725;SDS011;33483;48.294;16.388;2022-11-15T14:48:21;134.27;;;50.97;;
47725;SDS011;33483;48.294;16.388;2022-11-15T14:50:49;122.32;;;48.95;;
47725;SDS011;33483;48.294;16.388;2022-11-15T14:53:16;135.93;;;50.03;;
47725;SDS011;33483;48.294;16.388;2022-11-15T14:55:47;148.05;;;53.65;;
47725;SDS011;33483;48.294;16.388;2022-11-15T14:58:14;148.05;;;54.60;;
47725;SDS011;33483;48.294;16.388;2022-11-15T15:00:41;152.18;;;56.92;;
47725;SDS011;33483;48.294;16.388;2022-11-15T15:03:08;160.07;;;57.60;;
47725;SDS011;33483;48.294;16.388;2022-11-15T15:05:40;158.13;;;56.45;;
47725;SDS011;33483;48.294;16.388;2022-11-15T15:08:08;160.52;;;57.53;;
47725;SDS011;33483;48.294;16.388;2022-11-15T15:10:40;163.02;;;57.92;;
47725;SDS011;33483;48.294;16.388;2022-11-15T15:13:21;163.50;;;59.88;;
47725;SDS011;33483;48.294;16.388;2022-11-15T15:15:50;158.68;;;58.25;;
47725;SDS011;33483;48.294;16.388;2022-11-15T15:18:21;163.27;;;60.95;;
47725;SDS011;33483;48.294;16.388;2022-11-15T15:20:59;159.07;;;58.42;;
47725;SDS011;33483;48.294;16.388;2022-11-15T15:23:34;156.40;;;58.28;;
47725;SDS011;33483;48.294;16.388;2022-11-15T15:26:02;164.90;;;60.53;;
47725;SDS011;33483;48.294;16.388;2022-11-15T15:28:29;163.13;;;58.75;;
47725;SDS011;33483;48.294;16.388;2022-11-15T15:31:00;146.40;;;56.15;;
47725;SDS011;33483;48.294;16.388;2022-11-15T15:33:28;158.80;;;58.88;;
47725;SDS011;33483;48.294;16.388;2022-11-15T15:35:55;165.98;;;60.08;;
47725;SDS011;33483;48.294;16.388;2022-11-15T15:38:23;164.15;;;61.45;;
47725;SDS011;33483;48.294;16.388;2022-11-15T15:40:50;160.35;;;59.97;;
47725;SDS011;33483;48.294;16.388;2022-11-15T15:43:20;154.25;;;58.70;;
47725;SDS011;33483;48.294;16.388;2022-11-15T15:45:47;164.38;;;58.58;;
47725;SDS011;33483;48.294;16.388;2022-11-15T15:48:17;154.10;;;58.45;;
47725;SDS011;33483;48.294;16.388;2022-11-15T15:50:44;160.55;;;59.70;;
47725;SDS011;33483;48.294;16.388;2022-11-15T15:53:12;146.63;;;56.80;;
47725;SDS011;33483;48.294;16.388;2022-11-15T15:55:40;151.70;;;57.55;;
47725;SDS011;33483;48.294;16.388;2022-11-15T15:58:07;160.38;;;58.70;;
47725;SDS011;33483;48.294;16.388;2022-11-15T16:00:35;143.35;;;56.13;;
47725;SDS011;33483;48.294;16.388;2022-11-15T16:03:03;156.32;;;60.35;;
47725;SDS011;33483;48.294;16.388;2022-11-15T16:05:30;133.43;;;55.53;;
47725;SDS011;33483;48.294;16.388;2022-11-15T16:07:57;153.82;;;59.15;;
47725;SDS011;33483;48.294;16.388;2022-11-15T16:10:25;147.55;;;58.20;;
47725;SDS011;33483;48.294;16.388;2022-11-15T16:13:00;144.90;;;56.83;;
47725;SDS011;33483;48.294;16.388;2022-11-15T16:15:28;144.27;;;58.70;;
47725;SDS011;33483;48.294;16.388;2022-11-15T16:17:58;152.80;;;58.92;;
47725;SDS011;33483;48.294;16.388;2022-11-15T16:20:40;148.57;;;59.25;;
47725;SDS011;33483;48.294;16.388;2022-11-15T16:23:14;150.02;;;58.05;;
47725;SDS011;33483;48.294;16.388;2022-11-15T16:28:24;146.93;;;57.65;;
47725;SDS011;33483;48.294;16.388;2022-11-15T16:31:04;137.40;;;55.38;;
47725;SDS011;33483;48.294;16.388;2022-11-15T16:33:38;140.25;;;54.95;;
47725;SDS011;33483;48.294;16.388;2022-11-15T16:36:10;148.82;;;59.42;;
47725;SDS011;33483;48.294;16.388;2022-11-15T16:39:00;130.65;;;55.22;;
47725;SDS011;33483;48.294;16.388;2022-11-15T16:41:31;136.70;;;57.58;;
47725;SDS011;33483;48.294;16.388;2022-11-15T16:44:01;138.15;;;58.53;;
47725;SDS011;33483;48.294;16.388;2022-11-15T16:46:28;139.57;;;56.72;;
47725;SDS011;33483;48.294;16.388;2022-11-15T16:48:56;134.60;;;56.97;;
47725;SDS011;33483;48.294;16.388;2022-11-15T16:51:25;124.88;;;53.75;;
47725;SDS011;33483;48.294;16.388;2022-11-15T16:53:53;109.18;;;50.33;;
47725;SDS011;33483;48.294;16.388;2022-11-15T16:56:24;101.90;;;48.50;;
47725;SDS011;33483;48.294;16.388;2022-11-15T16:58:56;99.32;;;46.13;;
47725;SDS011;33483;48.294;16.388;2022-11-15T17:01:26;96.65;;;43.03;;
47725;SDS011;33483;48.294;16.388;2022-11-15T17:03:56;92.10;;;41.80;;
47725;SDS011;33483;48.294;16.388;2022-11-15T17:06:24;87.43;;;39.13;;
47725;SDS011;33483;48.294;16.388;2022-11-15T17:08:55;90.32;;;38.50;;
47725;SDS011;33483;48.294;16.388;2022-11-15T17:11:25;79.38;;;38.33;;
47725;SDS011;33483;48.294;16.388;2022-11-15T17:13:56;77.88;;;37.38;;
47725;SDS011;33483;48.294;16.388;2022-11-15T17:16:24;79.65;;;38.15;;
47725;SDS011;33483;48.294;16.388;2022-11-15T17:18:53;84.53;;;38.35;;
47725;SDS011;33483;48.294;16.388;2022-11-15T17:21:20;81.70;;;37.97;;
47725;SDS011;33483;48.294;16.388;2022-11-15T17:23:51;82.30;;;40.00;;
47725;SDS011;33483;48.294;16.388;2022-11-15T17:26:20;76.93;;;38.03;;
47725;SDS011;33483;48.294;16.388;2022-11-15T17:28:57;81.07;;;38.38;;
47725;SDS011;33483;48.294;16.388;2022-11-15T17:31:26;81.95;;;37.90;;
47725;SDS011;33483;48.294;16.388;2022-11-15T17:33:59;81.15;;;38.65;;
47725;SDS011;33483;48.294;16.388;2022-11-15T17:36:28;80.97;;;37.03;;
47725;SDS011;33483;48.294;16.388;2022-11-15T17:38:57;85.68;;;38.88;;
47725;SDS011;33483;48.294;16.388;2022-11-15T17:41:26;85.50;;;40.10;;
47725;SDS011;33483;48.294;16.388;2022-11-15T17:43:56;87.28;;;38.63;;
47725;SDS011;33483;48.294;16.388;2022-11-15T17:46:24;85.70;;;39.83;;
47725;SDS011;33483;48.294;16.388;2022-11-15T17:48:52;88.60;;;38.58;;
47725;SDS011;33483;48.294;16.388;2022-11-15T17:51:21;84.47;;;39.67;;
47725;SDS011;33483;48.294;16.388;2022-11-15T17:53:50;81.60;;;38.10;;